createdAt,value
2019-02-24T00:01:40.583Z,8.70
2019-02-24T00:04:07.895Z,8.70
2019-02-24T00:06:35.244Z,8.70
2019-02-24T00:09:02.727Z,8.60
2019-02-24T00:11:30.032Z,8.60
2019-02-24T00:13:57.342Z,8.60
2019-02-24T00:16:24.653Z,8.50
2019-02-24T00:18:52.056Z,8.50
2019-02-24T00:21:19.391Z,8.50
2019-02-24T00:23:46.761Z,8.40
2019-02-24T00:26:14.196Z,8.40
2019-02-24T00:29:00.991Z,8.40
2019-02-24T00:31:47.778Z,7.90
2019-02-24T00:34:15.176Z,7.70
2019-02-24T00:36:42.490Z,8.30
2019-02-24T00:39:09.885Z,8.20
2019-02-24T00:41:37.323Z,8.20
2019-02-24T00:44:04.675Z,8.20
2019-02-24T00:46:31.967Z,8.20
2019-02-24T00:48:59.339Z,8.20
2019-02-24T00:51:26.647Z,8.20
2019-02-24T00:53:53.999Z,8.10
2019-02-24T00:56:40.797Z,8.10
2019-02-24T00:59:08.105Z,7.30
2019-02-24T01:01:35.427Z,8.00
2019-02-24T01:04:02.762Z,8.00
2019-02-24T01:06:30.084Z,8.00
2019-02-24T01:08:57.422Z,7.90
2019-02-24T01:11:24.834Z,7.80
2019-02-24T01:13:53.910Z,7.80
2019-02-24T01:16:21.386Z,7.90
2019-02-24T01:18:48.732Z,7.80
2019-02-24T01:21:16.051Z,7.80
2019-02-24T01:23:43.362Z,7.80
2019-02-24T01:26:10.757Z,7.80
2019-02-24T01:28:57.554Z,7.70
2019-02-24T01:31:24.914Z,7.40
2019-02-24T01:33:52.334Z,7.70
2019-02-24T01:36:19.733Z,7.70
2019-02-24T01:38:47.108Z,7.60
2019-02-24T01:41:14.399Z,7.60
2019-02-24T01:43:41.734Z,7.50
2019-02-24T01:46:09.059Z,7.50
2019-02-24T01:48:36.447Z,7.60
2019-02-24T01:51:03.783Z,7.50
2019-02-24T01:53:31.362Z,7.50
2019-02-24T01:55:58.788Z,7.60
2019-02-24T01:58:34.601Z,7.50
2019-02-24T02:00:55.391Z,7.50
2019-02-24T02:03:22.736Z,7.50
2019-02-24T02:06:09.521Z,7.50
2019-02-24T02:08:36.875Z,7.10
2019-02-24T02:11:23.938Z,7.50
2019-02-24T02:13:51.708Z,7.00
2019-02-24T02:16:19.131Z,7.50
2019-02-24T02:18:46.541Z,7.40
2019-02-24T02:21:13.866Z,7.40
2019-02-24T02:23:41.336Z,7.50
2019-02-24T02:26:08.789Z,7.50
2019-02-24T02:28:43.734Z,7.50
2019-02-24T02:31:05.391Z,7.50
2019-02-24T02:33:32.735Z,7.60
2019-02-24T02:36:00.042Z,7.10
2019-02-24T02:38:27.503Z,7.40
2019-02-24T02:40:54.932Z,7.40
2019-02-24T02:43:22.342Z,7.30
2019-02-24T02:45:49.671Z,7.30
2019-02-24T02:48:16.999Z,7.30
2019-02-24T02:50:44.414Z,7.30
2019-02-24T02:53:11.707Z,7.20
2019-02-24T02:55:39.071Z,7.10
2019-02-24T02:58:06.388Z,7.10
2019-02-24T03:00:34.186Z,7.10
2019-02-24T03:03:01.638Z,7.10
2019-02-24T03:05:29.296Z,6.90
2019-02-24T03:08:13.633Z,7.00
2019-02-24T03:11:00.812Z,7.00
2019-02-24T03:13:28.965Z,6.70
2019-02-24T03:16:23.130Z,7.00
2019-02-24T03:18:50.674Z,6.50
2019-02-24T03:21:17.991Z,6.90
2019-02-24T03:23:45.328Z,6.90
2019-02-24T03:26:12.695Z,6.80
2019-02-24T03:28:39.999Z,6.60
2019-02-24T03:31:07.338Z,6.70
2019-02-24T03:33:34.695Z,6.70
2019-02-24T03:36:02.024Z,6.70
2019-02-24T03:38:29.342Z,6.70
2019-02-24T03:40:56.720Z,6.70
2019-02-24T03:43:24.053Z,6.60
2019-02-24T03:45:51.454Z,6.70
2019-02-24T03:48:18.865Z,6.70
2019-02-24T03:50:46.271Z,6.70
2019-02-24T03:53:13.597Z,6.70
2019-02-24T03:55:40.927Z,6.60
2019-02-24T03:58:08.250Z,6.50
2019-02-24T04:00:35.613Z,6.40
2019-02-24T04:03:02.965Z,6.40
2019-02-24T04:05:30.359Z,6.50
2019-02-24T04:07:57.702Z,6.50
2019-02-24T04:10:25.043Z,6.50
2019-02-24T04:12:52.354Z,6.30
2019-02-24T04:15:19.687Z,6.30
2019-02-24T04:17:47.008Z,6.30
2019-02-24T04:20:14.566Z,6.90
2019-02-24T04:22:41.868Z,6.30
2019-02-24T04:25:09.213Z,6.30
2019-02-24T04:27:36.517Z,6.40
2019-02-24T04:30:03.853Z,6.30
2019-02-24T04:32:31.229Z,6.50
2019-02-24T04:34:58.698Z,6.50
2019-02-24T04:37:26.046Z,6.40
2019-02-24T04:39:53.540Z,6.60
2019-02-24T04:42:20.883Z,6.50
2019-02-24T04:44:48.304Z,6.40
2019-02-24T04:47:15.710Z,6.40
2019-02-24T04:49:43.049Z,6.40
2019-02-24T04:52:10.396Z,6.40
2019-02-24T04:54:37.927Z,6.40
2019-02-24T04:57:05.539Z,6.40
2019-02-24T04:59:35.256Z,6.50
2019-02-24T05:02:02.163Z,6.40
2019-02-24T05:04:29.487Z,6.40
2019-02-24T05:07:18.114Z,6.40
2019-02-24T05:09:45.483Z,5.60
2019-02-24T05:12:12.800Z,6.20
2019-02-24T05:14:40.135Z,6.20
2019-02-24T05:17:07.475Z,6.20
2019-02-24T05:19:34.764Z,6.10
2019-02-24T05:22:02.122Z,6.20
2019-02-24T05:24:29.430Z,6.10
2019-02-24T05:27:16.532Z,6.10
2019-02-24T05:29:46.263Z,6.10
2019-02-24T05:32:13.111Z,6.10
2019-02-24T05:34:59.918Z,6.00
2019-02-24T05:37:27.284Z,5.70
2019-02-24T05:39:54.614Z,6.10
2019-02-24T05:42:22.007Z,6.00
2019-02-24T05:44:49.356Z,6.10
2019-02-24T05:47:16.798Z,6.90
2019-02-24T05:49:44.159Z,6.00
2019-02-24T05:52:11.504Z,6.20
2019-02-24T05:54:38.835Z,6.00
2019-02-24T05:57:06.164Z,6.00
2019-02-24T05:59:33.806Z,6.00
2019-02-24T06:02:01.121Z,6.00
2019-02-24T06:04:34.091Z,6.00
2019-02-24T06:07:01.447Z,5.80
2019-02-24T06:09:28.839Z,6.00
2019-02-24T06:11:56.593Z,5.90
2019-02-24T06:14:23.915Z,5.90
2019-02-24T06:16:51.295Z,6.60
2019-02-24T06:19:18.647Z,6.00
2019-02-24T06:21:46.023Z,5.90
2019-02-24T06:24:13.830Z,6.40
2019-02-24T06:26:41.138Z,5.90
2019-02-24T06:29:08.484Z,5.90
2019-02-24T06:31:35.944Z,6.00
2019-02-24T06:34:03.316Z,6.00
2019-02-24T06:36:50.228Z,5.90
2019-02-24T06:39:19.123Z,5.30
2019-02-24T06:41:46.479Z,5.90
2019-02-24T06:44:13.836Z,5.90
2019-02-24T06:46:41.138Z,5.80
2019-02-24T06:49:08.435Z,5.70
2019-02-24T06:51:35.815Z,6.10
2019-02-24T06:54:03.158Z,5.70
2019-02-24T06:56:30.501Z,5.70
2019-02-24T06:58:58.219Z,5.70
2019-02-24T07:01:25.619Z,5.60
2019-02-24T07:03:54.556Z,5.70
2019-02-24T07:06:22.239Z,5.70
2019-02-24T07:08:49.696Z,6.20
2019-02-24T07:11:17.104Z,5.70
2019-02-24T07:13:46.998Z,5.70
2019-02-24T07:16:14.359Z,6.40
2019-02-24T07:18:41.723Z,5.70
2019-02-24T07:21:09.165Z,5.70
2019-02-24T07:23:36.550Z,6.40
2019-02-24T07:26:16.112Z,5.80
2019-02-24T07:28:43.438Z,5.80
2019-02-24T07:31:10.763Z,6.20
2019-02-24T07:33:38.130Z,5.80
2019-02-24T07:36:05.455Z,5.90
2019-02-24T07:38:32.871Z,6.00
2019-02-24T07:41:00.285Z,6.40
2019-02-24T07:43:27.762Z,6.00
2019-02-24T07:45:55.122Z,6.30
2019-02-24T07:48:22.481Z,6.00
2019-02-24T07:50:49.835Z,6.00
2019-02-24T07:53:17.252Z,6.30
2019-02-24T07:55:46.660Z,6.10
2019-02-24T07:58:14.418Z,6.50
2019-02-24T08:00:41.728Z,6.20
2019-02-24T08:03:09.043Z,6.20
2019-02-24T08:05:36.398Z,6.20
2019-02-24T08:08:03.799Z,6.30
2019-02-24T08:10:31.217Z,6.40
2019-02-24T08:12:58.566Z,6.30
2019-02-24T08:15:25.922Z,6.40
2019-02-24T08:17:53.264Z,6.50
2019-02-24T08:20:20.606Z,6.50
2019-02-24T08:22:47.985Z,6.80
2019-02-24T08:25:15.355Z,6.60
2019-02-24T08:27:42.699Z,6.90
2019-02-24T08:30:10.157Z,6.60
2019-02-24T08:32:40.385Z,7.60
2019-02-24T08:35:07.716Z,6.70
2019-02-24T08:37:35.106Z,6.70
2019-02-24T08:40:02.558Z,6.80
2019-02-24T08:42:29.928Z,6.90
2019-02-24T08:44:57.290Z,6.90
2019-02-24T08:47:26.907Z,6.90
2019-02-24T08:49:54.219Z,6.30
2019-02-24T08:52:21.621Z,7.00
2019-02-24T08:54:48.956Z,7.20
2019-02-24T08:57:16.322Z,7.20
2019-02-24T08:59:43.677Z,7.20
2019-02-24T09:02:11.010Z,7.30
2019-02-24T09:04:38.355Z,7.30
2019-02-24T09:07:05.842Z,7.40
2019-02-24T09:09:33.172Z,7.50
2019-02-24T09:12:00.523Z,7.50
2019-02-24T09:14:27.990Z,7.60
2019-02-24T09:16:55.367Z,7.60
2019-02-24T09:19:22.779Z,7.70
2019-02-24T09:21:50.192Z,7.90
2019-02-24T09:24:17.596Z,7.80
2019-02-24T09:26:45.028Z,7.80
2019-02-24T09:29:12.463Z,7.90
2019-02-24T09:31:39.808Z,8.00
2019-02-24T09:34:07.215Z,8.10
2019-02-24T09:36:34.607Z,8.20
2019-02-24T09:39:22.496Z,8.20
2019-02-24T09:41:49.865Z,7.50
2019-02-24T09:44:17.279Z,8.40
2019-02-24T09:46:44.690Z,8.50
2019-02-24T09:49:12.037Z,8.60
2019-02-24T09:51:41.232Z,8.70
2019-02-24T09:54:08.727Z,8.70
2019-02-24T09:56:36.271Z,8.90
2019-02-24T10:02:00.055Z,8.80
2019-02-24T10:04:46.903Z,9.20
2019-02-24T10:07:14.586Z,9.00
2019-02-24T10:09:41.938Z,9.50
2019-02-24T10:12:09.738Z,9.70
2019-02-24T10:14:37.084Z,9.80
2019-02-24T10:17:04.673Z,9.90
2019-02-24T10:19:32.137Z,10.00
2019-02-24T10:21:59.465Z,10.20
2019-02-24T10:24:27.108Z,10.40
2019-02-24T10:26:54.544Z,10.60
2019-02-24T10:29:21.976Z,10.70
2019-02-24T10:31:49.358Z,10.90
2019-02-24T10:34:16.729Z,11.00
2019-02-24T10:36:44.176Z,11.20
2019-02-24T10:39:12.376Z,11.40
2019-02-24T10:41:39.727Z,11.50
2019-02-24T10:44:07.083Z,11.70
2019-02-24T10:46:34.575Z,11.70
2019-02-24T10:49:03.559Z,11.80
2019-02-24T10:51:31.191Z,12.00
2019-02-24T10:53:58.590Z,12.10
2019-02-24T10:56:26.352Z,12.20
2019-02-24T10:58:53.751Z,12.30
2019-02-24T11:01:29.299Z,12.40
2019-02-24T11:03:50.651Z,13.00
2019-02-24T11:06:18.784Z,12.60
2019-02-24T11:08:46.147Z,12.60
2019-02-24T11:11:13.583Z,12.70
2019-02-24T11:13:40.929Z,12.80
2019-02-24T11:16:08.311Z,12.90
2019-02-24T11:18:35.670Z,13.00
2019-02-24T11:21:03.103Z,13.00
2019-02-24T11:23:30.714Z,12.90
2019-02-24T11:25:58.159Z,13.10
2019-02-24T11:28:25.573Z,13.10
2019-02-24T11:30:52.892Z,13.20
2019-02-24T11:33:20.275Z,13.20
2019-02-24T11:35:47.727Z,13.30
2019-02-24T11:38:15.058Z,13.50
2019-02-24T11:40:42.415Z,13.50
2019-02-24T11:43:09.760Z,13.60
2019-02-24T11:45:37.445Z,13.70
2019-02-24T11:48:04.860Z,13.70
2019-02-24T11:50:32.202Z,13.90
2019-02-24T11:52:59.547Z,13.90
2019-02-24T11:55:26.847Z,13.90
2019-02-24T11:57:54.264Z,14.00
2019-02-24T12:00:21.695Z,14.00
2019-02-24T12:02:49.024Z,14.00
2019-02-24T12:05:16.410Z,14.10
2019-02-24T12:07:52.818Z,14.20
2019-02-24T12:10:20.290Z,13.70
2019-02-24T12:12:47.976Z,14.30
2019-02-24T12:15:15.329Z,14.40
2019-02-24T12:17:42.720Z,14.50
2019-02-24T12:20:10.138Z,14.50
2019-02-24T12:22:37.563Z,14.70
2019-02-24T12:25:05.570Z,14.60
2019-02-24T12:27:52.408Z,14.40
2019-02-24T12:30:21.347Z,14.20
2019-02-24T12:32:49.274Z,14.90
2019-02-24T12:35:16.597Z,14.90
2019-02-24T12:37:43.954Z,15.00
2019-02-24T12:40:11.343Z,15.10
2019-02-24T12:42:38.660Z,15.20
2019-02-24T12:45:06.009Z,15.30
2019-02-24T12:47:33.477Z,15.40
2019-02-24T12:50:03.473Z,15.50
2019-02-24T12:52:30.092Z,15.50
2019-02-24T12:54:57.582Z,15.50
2019-02-24T12:57:25.022Z,15.60
2019-02-24T12:59:52.368Z,15.70
2019-02-24T13:02:19.708Z,15.70
2019-02-24T13:04:47.091Z,15.80
2019-02-24T13:07:14.417Z,16.00
2019-02-24T13:09:41.777Z,15.90
2019-02-24T13:12:09.151Z,16.20
2019-02-24T13:14:36.584Z,16.30
2019-02-24T13:17:24.624Z,16.40
2019-02-24T13:19:52.785Z,15.90
2019-02-24T13:22:20.147Z,16.60
2019-02-24T13:24:47.638Z,16.80
2019-02-24T13:27:14.983Z,16.90
2019-02-24T13:29:42.446Z,16.90
2019-02-24T13:32:14.792Z,16.90
2019-02-24T13:34:59.301Z,17.00
2019-02-24T13:37:26.655Z,16.90
2019-02-24T13:39:54.093Z,16.90
2019-02-24T13:42:21.594Z,16.80
2019-02-24T13:44:49.054Z,16.70
2019-02-24T13:47:16.391Z,16.60
2019-02-24T13:49:43.809Z,16.60
2019-02-24T13:52:11.172Z,16.60
2019-02-24T13:54:38.632Z,16.70
2019-02-24T13:57:06.066Z,16.70
2019-02-24T13:59:33.445Z,16.70
2019-02-24T14:02:02.011Z,16.60
2019-02-24T14:04:29.540Z,16.60
2019-02-24T14:06:56.906Z,16.70
2019-02-24T14:09:24.236Z,16.70
2019-02-24T14:11:51.576Z,16.70
2019-02-24T14:14:18.947Z,16.80
2019-02-24T14:17:05.787Z,16.80
2019-02-24T14:19:33.231Z,16.70
2019-02-24T14:22:20.026Z,16.90
2019-02-24T14:25:06.908Z,17.00
2019-02-24T14:27:34.271Z,16.90
2019-02-24T14:30:01.967Z,17.10
2019-02-24T14:32:48.742Z,17.00
2019-02-24T14:35:35.507Z,17.00
2019-02-24T14:38:02.862Z,16.80
2019-02-24T14:40:30.246Z,17.20
2019-02-24T14:42:57.658Z,17.20
2019-02-24T14:45:24.995Z,17.10
2019-02-24T14:47:52.430Z,17.10
2019-02-24T14:50:21.347Z,17.00
2019-02-24T14:52:48.730Z,17.00
2019-02-24T14:55:16.095Z,16.90
2019-02-24T14:57:43.474Z,16.90
2019-02-24T15:00:11.672Z,16.90
2019-02-24T15:02:42.555Z,16.90
2019-02-24T15:05:08.482Z,16.90
2019-02-24T15:07:35.791Z,16.80
2019-02-24T15:10:03.559Z,16.80
2019-02-24T15:12:30.904Z,16.80
2019-02-24T15:14:58.256Z,16.90
2019-02-24T15:17:25.619Z,17.10
2019-02-24T15:19:52.974Z,17.00
2019-02-24T15:22:20.406Z,17.20
2019-02-24T15:24:48.708Z,17.40
2019-02-24T15:27:16.089Z,17.50
2019-02-24T15:30:04.091Z,17.60
2019-02-24T15:32:31.704Z,17.60
2019-02-24T15:34:59.175Z,18.10
2019-02-24T15:37:26.523Z,18.30
2019-02-24T15:39:54.018Z,18.50
2019-02-24T15:42:21.460Z,18.50
2019-02-24T15:44:48.794Z,18.60
2019-02-24T15:47:16.132Z,18.60
2019-02-24T15:49:43.449Z,18.70
2019-02-24T15:52:10.858Z,18.90
2019-02-24T15:54:38.213Z,19.00
2019-02-24T15:57:05.583Z,18.90
2019-02-24T15:59:33.033Z,18.80
2019-02-24T16:02:09.396Z,18.70
2019-02-24T16:04:36.760Z,18.70
2019-02-24T16:07:05.825Z,18.80
2019-02-24T16:09:33.192Z,18.60
2019-02-24T16:12:00.622Z,18.60
2019-02-24T16:14:29.657Z,18.40
2019-02-24T16:16:57.002Z,19.60
2019-02-24T16:19:45.325Z,18.30
2019-02-24T16:22:12.861Z,18.10
2019-02-24T16:24:40.238Z,18.20
2019-02-24T16:27:07.672Z,18.30
2019-02-24T16:29:35.098Z,18.30
2019-02-24T16:32:02.455Z,18.40
2019-02-24T16:34:29.928Z,18.60
2019-02-24T16:36:57.300Z,18.80
2019-02-24T16:39:24.647Z,19.00
2019-02-24T16:41:52.099Z,19.10
2019-02-24T16:44:19.458Z,18.80
2019-02-24T16:46:46.830Z,18.50
2019-02-24T16:49:16.952Z,18.20
2019-02-24T16:51:44.316Z,17.80
2019-02-24T16:54:11.647Z,17.70
2019-02-24T16:56:38.962Z,17.40
2019-02-24T16:59:06.311Z,17.30
2019-02-24T17:01:33.742Z,16.90
2019-02-24T17:04:01.093Z,16.80
2019-02-24T17:06:28.430Z,16.60
2019-02-24T17:09:01.323Z,16.50
2019-02-24T17:11:25.019Z,16.30
2019-02-24T17:13:52.363Z,16.20
2019-02-24T17:16:19.757Z,16.10
2019-02-24T17:18:47.075Z,15.90
2019-02-24T17:21:14.505Z,15.80
2019-02-24T17:23:49.756Z,15.70
2019-02-24T17:26:11.311Z,15.60
2019-02-24T17:28:38.740Z,15.60
2019-02-24T17:31:07.076Z,15.40
2019-02-24T17:33:54.409Z,15.30
2019-02-24T17:36:21.807Z,14.70
2019-02-24T17:38:49.118Z,15.20
2019-02-24T17:41:16.439Z,15.10
2019-02-24T17:43:43.763Z,15.00
2019-02-24T17:46:11.087Z,14.90
2019-02-24T17:48:38.488Z,14.80
2019-02-24T17:51:05.835Z,14.60
2019-02-24T17:53:33.142Z,14.60
2019-02-24T17:56:20.302Z,14.50
2019-02-24T17:58:47.660Z,14.40
2019-02-24T18:01:15.017Z,14.30
2019-02-24T18:03:42.451Z,14.20
2019-02-24T18:06:09.996Z,14.10
2019-02-24T18:08:57.195Z,14.00
2019-02-24T18:11:27.903Z,13.70
2019-02-24T18:13:55.410Z,13.80
2019-02-24T18:16:22.870Z,13.70
2019-02-24T18:18:50.496Z,13.50
2019-02-24T18:21:17.988Z,13.40
2019-02-24T18:23:45.346Z,13.40
2019-02-24T18:26:12.829Z,13.30
2019-02-24T18:28:40.267Z,13.30
2019-02-24T18:31:07.632Z,13.20
2019-02-24T18:33:35.057Z,13.20
2019-02-24T18:36:02.624Z,13.10
2019-02-24T18:38:30.052Z,13.10
2019-02-24T18:40:57.417Z,13.00
2019-02-24T18:43:24.884Z,12.90
2019-02-24T18:45:52.218Z,12.80
2019-02-24T18:48:19.563Z,12.70
2019-02-24T18:50:46.955Z,12.60
2019-02-24T18:53:14.294Z,12.60
2019-02-24T18:55:41.885Z,12.60
2019-02-24T18:58:09.382Z,12.60
2019-02-24T19:00:36.845Z,12.50
2019-02-24T19:03:04.435Z,12.50
2019-02-24T19:05:31.841Z,12.50
2019-02-24T19:07:59.341Z,12.30
2019-02-24T19:10:26.710Z,12.30
2019-02-24T19:12:55.570Z,12.30
2019-02-24T19:15:23.038Z,12.20
2019-02-24T19:17:50.398Z,12.10
2019-02-24T19:20:18.237Z,12.00
2019-02-24T19:22:45.783Z,12.00
2019-02-24T19:25:32.986Z,12.00
2019-02-24T19:28:00.400Z,11.30
2019-02-24T19:30:48.106Z,11.90
2019-02-24T19:33:15.595Z,11.40
2019-02-24T19:35:42.987Z,11.90
2019-02-24T19:38:10.492Z,11.80
2019-02-24T19:40:37.949Z,11.70
2019-02-24T19:43:05.533Z,11.70
2019-02-24T19:45:32.887Z,11.70
2019-02-24T19:48:00.294Z,11.60
2019-02-24T19:50:27.625Z,11.60
2019-02-24T19:52:54.986Z,11.60
2019-02-24T19:55:22.486Z,11.50
2019-02-24T19:58:09.401Z,11.50
2019-02-24T20:00:38.595Z,10.50
2019-02-24T20:03:25.483Z,11.30
2019-02-24T20:05:52.828Z,10.30
2019-02-24T20:08:20.206Z,11.30
2019-02-24T20:10:47.858Z,11.30
2019-02-24T20:13:34.838Z,11.30
2019-02-24T20:16:02.264Z,10.70
2019-02-24T20:18:29.608Z,11.20
2019-02-24T20:20:57.008Z,11.20
2019-02-24T20:23:24.335Z,11.10
2019-02-24T20:25:51.657Z,11.10
2019-02-24T20:28:19.147Z,11.10
2019-02-24T20:30:46.479Z,11.10
2019-02-24T20:33:13.795Z,11.00
2019-02-24T20:35:41.127Z,11.10
2019-02-24T20:38:08.460Z,10.90
2019-02-24T20:40:35.803Z,10.90
2019-02-24T20:43:03.247Z,10.80
2019-02-24T20:45:30.771Z,10.80
2019-02-24T20:47:58.207Z,10.80
2019-02-24T20:50:25.660Z,10.80
2019-02-24T20:52:53.186Z,10.70
2019-02-24T20:55:20.535Z,10.70
2019-02-24T20:57:47.842Z,10.70
2019-02-24T21:00:24.087Z,10.70
2019-02-24T21:02:51.422Z,10.70
2019-02-24T21:05:18.876Z,10.50
2019-02-24T21:07:46.252Z,10.50
2019-02-24T21:10:13.571Z,10.40
2019-02-24T21:12:40.940Z,10.50
2019-02-24T21:15:09.335Z,10.40
2019-02-24T21:17:36.708Z,10.40
2019-02-24T21:20:05.764Z,10.40
2019-02-24T21:22:33.351Z,10.40
2019-02-24T21:25:00.721Z,10.30
2019-02-24T21:27:28.044Z,10.30
2019-02-24T21:29:55.399Z,10.30
2019-02-24T21:32:22.720Z,10.30
2019-02-24T21:34:50.811Z,10.30
2019-02-24T21:37:18.258Z,10.20
2019-02-24T21:39:45.589Z,10.20
2019-02-24T21:42:12.890Z,10.10
2019-02-24T21:44:40.256Z,10.10
2019-02-24T21:47:07.732Z,10.00
2019-02-24T21:49:35.136Z,10.00
2019-02-24T21:52:02.542Z,10.00
2019-02-24T21:54:29.858Z,10.00
2019-02-24T21:56:57.292Z,10.00
2019-02-24T21:59:24.630Z,10.10
2019-02-24T22:01:51.930Z,10.00
2019-02-24T22:04:19.302Z,9.90
2019-02-24T22:06:46.647Z,9.90
2019-02-24T22:09:13.997Z,10.00
2019-02-24T22:11:41.357Z,9.90
2019-02-24T22:14:09.019Z,9.80
2019-02-24T22:16:36.362Z,9.90
2019-02-24T22:19:03.773Z,9.90
2019-02-24T22:21:31.256Z,9.80
2019-02-24T22:23:58.696Z,9.80
2019-02-24T22:26:45.812Z,9.80
2019-02-24T22:29:13.168Z,9.30
2019-02-24T22:32:00.014Z,9.70
2019-02-24T22:34:27.338Z,9.50
2019-02-24T22:36:54.654Z,9.70
2019-02-24T22:39:23.429Z,9.70
2019-02-24T22:41:50.885Z,9.60
2019-02-24T22:44:18.253Z,9.60
2019-02-24T22:46:45.675Z,9.60
2019-02-24T22:49:13.027Z,9.60
2019-02-24T22:51:40.399Z,9.60
2019-02-24T22:54:07.704Z,9.60
2019-02-24T22:56:54.495Z,9.60
2019-02-24T22:59:21.863Z,9.00
2019-02-24T23:01:49.335Z,9.60
2019-02-24T23:04:16.911Z,9.50
2019-02-24T23:06:44.251Z,9.50
2019-02-24T23:09:31.147Z,8.80
2019-02-24T23:11:58.476Z,9.20
2019-02-24T23:14:25.775Z,9.50
2019-02-24T23:16:53.155Z,9.50
2019-02-24T23:19:20.590Z,9.50
2019-02-24T23:21:48.005Z,9.40
2019-02-24T23:24:15.358Z,9.40
2019-02-24T23:27:02.251Z,9.40
2019-02-24T23:29:29.600Z,9.00
2019-02-24T23:31:56.947Z,9.30
2019-02-24T23:34:24.338Z,9.30
2019-02-24T23:36:51.715Z,9.30
2019-02-24T23:39:19.041Z,9.20
2019-02-24T23:41:46.567Z,9.20
2019-02-24T23:44:33.461Z,9.20
2019-02-24T23:47:00.865Z,9.00
2019-02-24T23:49:28.168Z,9.20
2019-02-24T23:51:55.493Z,9.30
2019-02-24T23:54:22.805Z,9.20
2019-02-24T23:56:50.130Z,9.20
2019-02-24T23:59:17.583Z,9.20
